createdAt,value
2022-08-25T00:00:17.930Z,22.03
2022-08-25T00:02:55.030Z,21.50
2022-08-25T00:05:27.284Z,23.67
2022-08-25T00:07:57.957Z,23.60
2022-08-25T00:10:27.004Z,22.73
2022-08-25T00:12:59.680Z,24.10
2022-08-25T00:15:29.027Z,23.13
2022-08-25T00:17:59.997Z,25.27
2022-08-25T00:20:30.478Z,21.07
2022-08-25T00:22:59.025Z,23.53
2022-08-25T00:25:30.308Z,24.20
2022-08-25T00:27:59.251Z,21.77
2022-08-25T00:30:30.763Z,22.50
2022-08-25T00:33:01.067Z,21.63
2022-08-25T00:35:29.311Z,23.33
2022-08-25T00:37:57.657Z,22.97
2022-08-25T00:40:27.708Z,24.70
2022-08-25T00:42:56.261Z,22.20
2022-08-25T00:45:29.569Z,21.73
2022-08-25T00:48:02.544Z,23.23
2022-08-25T00:50:35.075Z,24.63
2022-08-25T00:53:07.892Z,23.47
2022-08-25T00:55:39.848Z,22.70
2022-08-25T00:58:14.230Z,23.13
2022-08-25T01:00:46.128Z,23.70
2022-08-25T01:03:14.512Z,22.20
2022-08-25T01:05:45.523Z,21.77
2022-08-25T01:08:16.255Z,22.77
2022-08-25T01:10:46.591Z,23.50
2022-08-25T01:13:20.021Z,22.30
2022-08-25T01:15:50.336Z,22.07
2022-08-25T01:18:28.926Z,23.10
2022-08-25T01:21:02.971Z,22.13
2022-08-25T01:24:00.755Z,25.37
2022-08-25T01:26:58.150Z,24.03
2022-08-25T01:29:26.760Z,26.27
2022-08-25T01:31:57.823Z,25.27
2022-08-25T01:34:30.206Z,26.33
2022-08-25T01:37:01.069Z,26.90
2022-08-25T01:39:31.250Z,25.33
2022-08-25T01:42:19.141Z,25.53
2022-08-25T01:44:49.007Z,27.00
2022-08-25T01:47:17.171Z,28.43
2022-08-25T01:49:45.213Z,27.43
2022-08-25T01:52:20.455Z,29.37
2022-08-25T01:54:49.434Z,30.17
2022-08-25T01:57:17.444Z,31.33
2022-08-25T01:59:45.358Z,31.80
2022-08-25T02:02:13.486Z,29.97
2022-08-25T02:04:42.519Z,29.83
2022-08-25T02:07:13.998Z,31.73
2022-08-25T02:09:42.388Z,30.30
2022-08-25T02:12:11.274Z,29.57
2022-08-25T02:14:39.683Z,31.07
2022-08-25T02:17:11.805Z,30.87
2022-08-25T02:19:39.819Z,28.67
2022-08-25T02:22:07.992Z,30.43
2022-08-25T02:24:37.638Z,29.00
2022-08-25T02:27:08.775Z,29.70
2022-08-25T02:29:36.689Z,32.47
2022-08-25T02:32:05.610Z,32.13
2022-08-25T02:34:33.776Z,29.57
2022-08-25T02:37:02.191Z,30.70
2022-08-25T02:39:30.008Z,31.43
2022-08-25T02:42:00.014Z,33.17
2022-08-25T02:44:27.768Z,36.67
2022-08-25T02:46:55.767Z,41.33
2022-08-25T02:49:24.323Z,40.97
2022-08-25T02:51:52.150Z,38.33
2022-08-25T02:54:19.948Z,42.67
2022-08-25T02:56:48.949Z,42.23
2022-08-25T02:59:20.563Z,38.23
2022-08-25T03:01:49.512Z,42.13
2022-08-25T03:04:17.289Z,38.00
2022-08-25T03:06:45.499Z,37.00
2022-08-25T03:09:14.466Z,37.73
2022-08-25T03:11:42.448Z,38.37
2022-08-25T03:14:12.037Z,37.77
2022-08-25T03:16:46.359Z,36.93
2022-08-25T03:19:15.523Z,33.20
2022-08-25T03:21:46.891Z,39.87
2022-08-25T03:24:14.852Z,36.13
2022-08-25T03:26:53.714Z,36.17
2022-08-25T03:29:24.544Z,38.43
2022-08-25T03:31:54.959Z,38.87
2022-08-25T03:34:23.883Z,39.23
2022-08-25T03:36:53.735Z,35.63
2022-08-25T03:39:24.494Z,39.60
2022-08-25T03:41:53.719Z,36.53
2022-08-25T03:44:23.168Z,37.67
2022-08-25T03:46:53.602Z,36.30
2022-08-25T03:49:25.164Z,34.93
2022-08-25T03:51:55.575Z,35.40
2022-08-25T03:54:32.975Z,36.23
2022-08-25T03:57:03.388Z,34.60
2022-08-25T03:59:32.196Z,34.93
2022-08-25T04:02:01.904Z,33.87
2022-08-25T04:04:31.287Z,40.33
2022-08-25T04:06:59.828Z,35.83
2022-08-25T04:09:28.379Z,27.73
2022-08-25T04:12:00.070Z,25.57
2022-08-25T04:14:28.830Z,29.60
2022-08-25T04:16:57.215Z,30.23
2022-08-25T04:19:26.899Z,26.70
2022-08-25T04:21:56.666Z,27.20
2022-08-25T04:24:24.793Z,30.27
2022-08-25T04:26:53.341Z,33.30
2022-08-25T04:29:45.863Z,33.33
2022-08-25T04:32:40.975Z,31.47
2022-08-25T04:35:13.922Z,31.80
2022-08-25T04:37:41.815Z,33.97
2022-08-25T04:40:11.181Z,34.70
2022-08-25T04:42:42.764Z,36.43
2022-08-25T04:45:10.745Z,38.73
2022-08-25T04:47:39.606Z,35.03
2022-08-25T04:50:08.606Z,33.43
2022-08-25T04:52:57.116Z,27.50
2022-08-25T04:55:31.071Z,26.63
2022-08-25T04:58:21.173Z,24.10
2022-08-25T05:00:49.055Z,26.93
2022-08-25T05:03:20.964Z,26.27
2022-08-25T05:05:54.535Z,25.97
2022-08-25T05:08:24.292Z,28.20
2022-08-25T05:10:54.615Z,30.83
2022-08-25T05:13:24.045Z,30.23
2022-08-25T05:15:56.262Z,33.50
2022-08-25T05:18:29.110Z,35.30
2022-08-25T05:20:58.391Z,29.73
2022-08-25T05:23:27.794Z,31.87
2022-08-25T05:25:56.763Z,32.77
2022-08-25T05:28:26.310Z,36.97
2022-08-25T05:31:00.692Z,37.67
2022-08-25T05:33:30.516Z,37.95
2022-08-25T05:36:03.700Z,38.13
2022-08-25T05:38:33.359Z,52.60
2022-08-25T05:41:10.797Z,49.83
2022-08-25T05:43:42.766Z,52.38
2022-08-25T05:46:11.607Z,56.45
2022-08-25T05:48:40.421Z,56.40
2022-08-25T05:51:10.342Z,56.80
2022-08-25T05:53:41.686Z,56.00
2022-08-25T05:56:10.832Z,53.60
2022-08-25T05:58:42.558Z,54.80
2022-08-25T06:01:29.446Z,52.20
2022-08-25T06:03:57.866Z,54.30
2022-08-25T06:06:26.449Z,63.90
2022-08-25T06:08:55.734Z,62.25
2022-08-25T06:11:24.445Z,63.72
2022-08-25T06:13:52.285Z,80.57
2022-08-25T06:16:21.692Z,94.93
2022-08-25T06:18:49.584Z,76.32
2022-08-25T06:21:21.404Z,68.50
2022-08-25T06:23:50.372Z,78.25
2022-08-25T06:26:22.909Z,78.93
2022-08-25T06:28:51.515Z,80.60
2022-08-25T06:31:22.603Z,94.75
2022-08-25T06:33:52.136Z,91.13
2022-08-25T06:36:21.485Z,106.80
2022-08-25T06:38:49.727Z,141.57
2022-08-25T06:41:19.549Z,181.88
2022-08-25T06:43:56.706Z,216.45
2022-08-25T06:46:36.426Z,174.55
2022-08-25T06:49:06.440Z,183.77
2022-08-25T06:51:36.703Z,180.07
2022-08-25T06:54:05.378Z,199.02
2022-08-25T06:56:35.596Z,252.73
2022-08-25T06:59:06.807Z,266.23
2022-08-25T07:01:49.703Z,231.95
2022-08-25T07:04:18.230Z,219.15
2022-08-25T07:06:47.673Z,225.73
2022-08-25T07:09:25.339Z,221.95
2022-08-25T07:11:56.521Z,269.27
2022-08-25T07:14:27.019Z,277.10
2022-08-25T07:16:54.807Z,346.30
2022-08-25T07:19:22.741Z,250.32
2022-08-25T07:21:52.751Z,250.02
2022-08-25T07:24:20.535Z,235.23
2022-08-25T07:26:48.580Z,201.45
2022-08-25T07:29:20.021Z,170.35
2022-08-25T07:31:49.858Z,147.95
2022-08-25T07:34:35.615Z,129.18
2022-08-25T07:37:06.780Z,151.32
2022-08-25T07:39:35.872Z,174.82
2022-08-25T07:42:03.976Z,213.75
2022-08-25T07:44:32.895Z,151.75
2022-08-25T07:47:03.013Z,180.35
2022-08-25T07:49:35.811Z,168.15
2022-08-25T07:52:07.609Z,171.45
2022-08-25T07:54:38.440Z,181.40
2022-08-25T07:57:08.448Z,162.70
2022-08-25T07:59:39.250Z,129.75
2022-08-25T08:02:18.804Z,132.55
2022-08-25T08:04:48.885Z,123.03
2022-08-25T08:07:18.553Z,178.77
2022-08-25T08:09:46.963Z,138.73
2022-08-25T08:12:15.199Z,151.35
2022-08-25T08:14:45.064Z,141.15
2022-08-25T08:17:16.319Z,123.35
2022-08-25T08:19:45.509Z,133.43
2022-08-25T08:22:16.230Z,197.35
2022-08-25T08:24:56.222Z,326.42
2022-08-25T08:27:25.496Z,231.95
2022-08-25T08:29:53.826Z,242.10
2022-08-25T08:32:31.493Z,283.00
2022-08-25T08:35:17.859Z,211.90
2022-08-25T08:37:47.690Z,224.30
2022-08-25T08:40:21.904Z,271.17
2022-08-25T08:43:02.510Z,266.27
2022-08-25T08:45:35.748Z,174.63
2022-08-25T08:48:36.847Z,175.77
2022-08-25T08:51:17.594Z,146.60
2022-08-25T08:53:57.431Z,217.55
2022-08-25T08:56:30.668Z,282.13
2022-08-25T08:59:05.624Z,245.68
2022-08-25T09:01:36.831Z,201.15
2022-08-25T09:04:21.490Z,319.73
2022-08-25T09:06:53.509Z,235.55
2022-08-25T09:09:28.239Z,240.98
2022-08-25T09:12:18.220Z,264.27
2022-08-25T09:14:59.202Z,584.25
2022-08-25T09:17:54.870Z,270.35
2022-08-25T09:20:57.825Z,191.82
2022-08-25T09:23:44.186Z,193.30
2022-08-25T09:26:27.567Z,208.07
2022-08-25T09:29:03.405Z,252.23
2022-08-25T09:31:39.120Z,410.05
2022-08-25T09:34:12.750Z,254.52
2022-08-25T09:36:45.442Z,188.40
2022-08-25T09:39:14.163Z,231.93
2022-08-25T09:41:46.512Z,225.35
2022-08-25T09:44:26.234Z,247.45
2022-08-25T09:47:08.279Z,224.35
2022-08-25T09:49:41.515Z,242.30
2022-08-25T09:52:32.986Z,230.73
2022-08-25T09:55:21.847Z,206.13
2022-08-25T09:57:55.117Z,245.80
2022-08-25T10:00:30.744Z,330.60
2022-08-25T10:03:07.815Z,224.48
2022-08-25T10:05:43.411Z,223.65
2022-08-25T10:08:16.387Z,218.55
2022-08-25T10:10:57.406Z,255.82
2022-08-25T10:13:41.084Z,200.43
2022-08-25T10:16:20.652Z,258.27
2022-08-25T10:19:10.294Z,189.27
2022-08-25T10:21:41.482Z,208.27
2022-08-25T10:24:13.605Z,199.82
2022-08-25T10:26:53.351Z,199.05
2022-08-25T10:29:38.540Z,174.68
2022-08-25T10:32:17.415Z,161.32
2022-08-25T10:34:51.769Z,184.18
2022-08-25T10:37:32.666Z,235.52
2022-08-25T10:40:16.524Z,227.48
2022-08-25T10:42:58.515Z,229.73
2022-08-25T10:45:44.422Z,232.13
2022-08-25T10:48:36.446Z,250.50
2022-08-25T10:51:20.505Z,284.58
2022-08-25T10:54:02.249Z,245.68
2022-08-25T10:56:37.033Z,216.73
2022-08-25T10:59:22.290Z,222.82
2022-08-25T11:02:02.732Z,202.98
2022-08-25T11:04:38.276Z,201.00
2022-08-25T11:07:13.136Z,190.90
2022-08-25T11:09:46.317Z,168.85
2022-08-25T11:12:26.828Z,187.23
2022-08-25T11:14:58.870Z,197.77
2022-08-25T11:17:31.758Z,223.40
2022-08-25T11:20:19.120Z,207.52
2022-08-25T11:22:56.147Z,282.98
2022-08-25T11:25:30.426Z,239.27
2022-08-25T11:28:04.906Z,232.65
2022-08-25T11:30:33.602Z,203.35
2022-08-25T11:33:02.903Z,182.70
2022-08-25T11:35:35.375Z,177.18
2022-08-25T11:38:26.174Z,181.05
2022-08-25T11:41:11.263Z,170.13
2022-08-25T11:43:58.368Z,168.95
2022-08-25T11:46:45.622Z,158.48
2022-08-25T11:49:32.989Z,152.50
2022-08-25T11:52:03.094Z,174.85
2022-08-25T11:54:38.840Z,274.17
2022-08-25T11:57:25.827Z,254.02
2022-08-25T12:04:24.103Z,216.65
2022-08-25T12:07:19.860Z,188.60
2022-08-25T12:10:17.675Z,164.77
2022-08-25T12:13:14.573Z,173.07
2022-08-25T12:16:02.406Z,159.93
2022-08-25T12:18:45.966Z,161.98
2022-08-25T12:21:17.513Z,159.65
2022-08-25T12:23:52.824Z,157.30
2022-08-25T12:26:31.799Z,161.40
2022-08-25T12:29:09.599Z,155.38
2022-08-25T12:32:07.060Z,230.20
2022-08-25T12:34:49.797Z,165.30
2022-08-25T12:37:20.458Z,168.93
2022-08-25T12:40:00.574Z,166.63
2022-08-25T12:42:37.980Z,169.07
2022-08-25T12:45:15.051Z,187.38
2022-08-25T12:47:47.635Z,161.20
2022-08-25T12:50:43.625Z,182.18
2022-08-25T12:53:16.632Z,162.63
2022-08-25T12:55:50.125Z,188.35
2022-08-25T12:58:18.331Z,168.05
2022-08-25T13:01:35.385Z,154.20
2022-08-25T13:04:35.976Z,145.00
2022-08-25T13:07:19.904Z,150.02
2022-08-25T13:10:12.024Z,149.90
2022-08-25T13:12:48.670Z,147.52
2022-08-25T13:15:26.753Z,154.10
2022-08-25T13:17:54.899Z,137.38
2022-08-25T13:20:29.561Z,142.20
2022-08-25T13:23:01.694Z,166.00
2022-08-25T13:25:34.825Z,148.68
2022-08-25T13:28:11.133Z,157.23
2022-08-25T13:30:40.295Z,249.82
2022-08-25T13:33:20.331Z,198.63
2022-08-25T13:36:12.335Z,192.32
2022-08-25T13:38:41.097Z,191.40
2022-08-25T13:41:20.355Z,188.20
2022-08-25T13:43:49.182Z,185.45
2022-08-25T13:46:23.254Z,176.63
2022-08-25T13:48:52.155Z,195.05
2022-08-25T13:51:31.458Z,172.93
2022-08-25T13:54:04.113Z,178.23
2022-08-25T13:56:39.959Z,159.30
2022-08-25T13:59:22.212Z,159.50
2022-08-25T14:01:52.376Z,184.85
2022-08-25T14:04:32.084Z,152.00
2022-08-25T14:07:25.614Z,155.05
2022-08-25T14:09:56.496Z,155.98
2022-08-25T14:12:31.298Z,146.27
2022-08-25T14:15:01.014Z,140.20
2022-08-25T14:17:39.435Z,136.10
2022-08-25T14:20:19.251Z,153.32
2022-08-25T14:22:53.898Z,165.73
2022-08-25T14:25:21.973Z,158.52
2022-08-25T14:28:07.267Z,150.43
2022-08-25T14:30:51.822Z,145.98
2022-08-25T14:33:22.374Z,156.75
2022-08-25T14:35:54.559Z,170.82
2022-08-25T14:38:25.293Z,141.18
2022-08-25T14:40:54.167Z,138.15
2022-08-25T14:43:31.334Z,127.25
2022-08-25T14:46:00.058Z,124.32
2022-08-25T14:48:34.620Z,122.30
2022-08-25T14:51:05.423Z,134.50
2022-08-25T14:53:35.290Z,134.15
2022-08-25T14:56:09.260Z,126.40
2022-08-25T14:58:51.366Z,128.02
2022-08-25T15:01:29.556Z,146.57
2022-08-25T15:04:03.034Z,141.52
2022-08-25T15:06:31.719Z,131.02
2022-08-25T15:09:10.814Z,136.00
2022-08-25T15:11:41.580Z,157.18
2022-08-25T15:14:12.114Z,151.50
2022-08-25T15:16:43.725Z,138.57
2022-08-25T15:19:16.000Z,133.38
2022-08-25T15:21:46.210Z,137.52
2022-08-25T15:24:17.233Z,141.13
2022-08-25T15:29:23.318Z,185.40
2022-08-25T15:31:51.440Z,135.20
2022-08-25T15:34:19.650Z,134.40
2022-08-25T15:36:47.901Z,127.75
2022-08-25T15:39:18.053Z,123.18
2022-08-25T15:41:49.514Z,117.53
2022-08-25T15:44:17.937Z,155.20
2022-08-25T15:46:49.574Z,116.72
2022-08-25T15:49:24.043Z,119.82
2022-08-25T15:51:54.221Z,128.20
2022-08-25T15:54:26.779Z,125.65
2022-08-25T15:56:56.021Z,134.23
2022-08-25T15:59:25.199Z,153.05
2022-08-25T16:01:54.409Z,124.47
2022-08-25T16:04:22.949Z,114.53
2022-08-25T16:06:52.021Z,119.25
2022-08-25T16:09:22.907Z,111.25
2022-08-25T16:11:56.865Z,117.68
2022-08-25T16:14:25.876Z,124.03
2022-08-25T16:16:53.824Z,120.10
2022-08-25T16:19:26.435Z,121.53
2022-08-25T16:21:54.234Z,112.25
2022-08-25T16:24:23.234Z,110.20
2022-08-25T16:26:52.641Z,112.60
2022-08-25T16:29:23.600Z,104.38
2022-08-25T16:31:53.560Z,104.30
2022-08-25T16:34:28.606Z,97.80
2022-08-25T16:36:58.952Z,98.65
2022-08-25T16:39:26.867Z,92.90
2022-08-25T16:41:56.707Z,106.13
2022-08-25T16:44:25.758Z,111.25
2022-08-25T16:46:56.016Z,98.80
2022-08-25T16:49:25.530Z,101.07
2022-08-25T16:51:57.792Z,106.88
2022-08-25T16:54:44.101Z,101.45
2022-08-25T16:57:13.538Z,99.35
2022-08-25T16:59:43.937Z,96.70
2022-08-25T17:02:12.213Z,96.55
2022-08-25T17:04:41.473Z,95.63
2022-08-25T17:07:12.400Z,105.57
2022-08-25T17:09:41.128Z,81.43
2022-08-25T17:12:09.443Z,84.30
2022-08-25T17:14:39.893Z,89.20
2022-08-25T17:17:08.009Z,87.45
2022-08-25T17:19:36.164Z,79.82
2022-08-25T17:22:04.566Z,85.50
2022-08-25T17:24:34.544Z,82.32
2022-08-25T17:27:03.416Z,82.63
2022-08-25T17:29:31.387Z,86.05
2022-08-25T17:32:00.680Z,81.97
2022-08-25T17:34:30.310Z,79.22
2022-08-25T17:36:59.161Z,72.93
2022-08-25T17:39:28.166Z,73.50
2022-08-25T17:41:56.616Z,78.30
2022-08-25T17:44:24.851Z,77.82
2022-08-25T17:46:52.972Z,70.68
2022-08-25T17:49:26.405Z,75.13
2022-08-25T17:51:55.125Z,84.75
2022-08-25T17:54:22.874Z,87.72
2022-08-25T17:56:51.010Z,86.63
2022-08-25T17:59:19.697Z,93.63
2022-08-25T18:01:48.092Z,100.15
2022-08-25T18:04:17.172Z,97.80
2022-08-25T18:06:48.512Z,98.05
2022-08-25T18:09:17.759Z,102.78
2022-08-25T18:11:46.187Z,100.60
2022-08-25T18:14:16.531Z,101.70
2022-08-25T18:16:47.262Z,105.25
2022-08-25T18:19:17.583Z,107.45
2022-08-25T18:21:46.767Z,105.70
2022-08-25T18:24:15.501Z,111.15
2022-08-25T18:26:43.778Z,105.53
2022-08-25T18:29:13.348Z,112.45
2022-08-25T18:31:42.197Z,115.75
2022-08-25T18:34:11.568Z,121.40
2022-08-25T18:36:39.779Z,135.75
2022-08-25T18:39:28.749Z,138.70
2022-08-25T18:42:02.034Z,154.45
2022-08-25T18:44:31.554Z,158.65
2022-08-25T18:46:59.686Z,190.35
2022-08-25T18:49:35.491Z,204.82
2022-08-25T18:52:03.231Z,204.20
2022-08-25T18:54:33.489Z,206.70
2022-08-25T18:57:04.025Z,219.15
2022-08-25T18:59:31.973Z,227.45
2022-08-25T19:01:59.920Z,233.07
2022-08-25T19:04:32.058Z,265.52
2022-08-25T19:07:01.611Z,206.07
2022-08-25T19:09:30.567Z,202.63
2022-08-25T19:12:00.623Z,213.30
2022-08-25T19:14:29.118Z,184.95
2022-08-25T19:16:58.062Z,153.93
2022-08-25T19:19:25.949Z,295.95
2022-08-25T19:21:54.686Z,154.38
2022-08-25T19:24:22.983Z,179.98
2022-08-25T19:26:54.778Z,180.50
2022-08-25T19:29:24.920Z,196.98
2022-08-25T19:31:53.349Z,118.00
2022-08-25T19:34:28.306Z,116.30
2022-08-25T19:37:01.388Z,120.68
2022-08-25T19:39:30.705Z,117.15
2022-08-25T19:41:58.734Z,182.68
2022-08-25T19:44:30.040Z,150.43
2022-08-25T19:46:58.969Z,107.55
2022-08-25T19:49:31.685Z,117.90
2022-08-25T19:52:00.602Z,181.60
2022-08-25T19:54:31.956Z,103.43
2022-08-25T19:57:00.289Z,106.57
2022-08-25T19:59:40.499Z,348.35
2022-08-25T20:02:15.413Z,98.95
2022-08-25T20:04:49.513Z,110.38
2022-08-25T20:07:18.545Z,114.53
2022-08-25T20:10:02.264Z,132.85
2022-08-25T20:15:34.328Z,128.63
2022-08-25T20:18:05.944Z,104.60
2022-08-25T20:20:37.944Z,145.90
2022-08-25T20:23:25.171Z,89.90
2022-08-25T20:25:56.227Z,99.70
2022-08-25T20:28:25.559Z,80.32
2022-08-25T20:31:13.303Z,72.93
2022-08-25T20:33:41.640Z,119.53
2022-08-25T20:36:15.822Z,64.72
2022-08-25T20:38:45.067Z,181.35
2022-08-25T20:41:13.678Z,61.08
2022-08-25T20:43:42.527Z,63.78
2022-08-25T20:46:12.743Z,56.97
2022-08-25T20:48:40.850Z,53.78
2022-08-25T20:51:10.581Z,133.02
2022-08-25T20:53:42.562Z,53.33
2022-08-25T20:56:25.788Z,48.70
2022-08-25T20:58:53.554Z,45.72
2022-08-25T21:01:37.485Z,51.33
2022-08-25T21:04:06.597Z,42.53
2022-08-25T21:06:35.584Z,41.72
2022-08-25T21:09:05.717Z,41.20
2022-08-25T21:11:49.154Z,45.72
2022-08-25T21:14:18.283Z,39.40
2022-08-25T21:16:48.572Z,37.40
2022-08-25T21:19:26.302Z,37.13
2022-08-25T21:21:59.804Z,34.25
2022-08-25T21:24:29.386Z,32.72
2022-08-25T21:26:59.471Z,36.15
2022-08-25T21:29:32.677Z,32.17
2022-08-25T21:32:04.122Z,33.55
2022-08-25T21:34:32.708Z,39.72
2022-08-25T21:37:01.146Z,35.95
2022-08-25T21:39:34.047Z,30.85
2022-08-25T21:42:03.474Z,31.13
2022-08-25T21:44:32.191Z,29.88
2022-08-25T21:47:02.106Z,32.92
2022-08-25T21:49:37.804Z,33.17
2022-08-25T21:52:06.410Z,35.10
2022-08-25T21:54:34.826Z,33.05
2022-08-25T21:57:05.737Z,32.88
2022-08-25T21:59:54.607Z,31.63
2022-08-25T22:02:27.135Z,31.08
2022-08-25T22:04:59.916Z,31.87
2022-08-25T22:07:48.900Z,32.78
2022-08-25T22:10:24.173Z,30.35
2022-08-25T22:13:13.668Z,29.17
2022-08-25T22:15:41.717Z,28.90
2022-08-25T22:18:10.887Z,30.30
2022-08-25T22:20:39.386Z,30.97
2022-08-25T22:23:09.895Z,29.08
2022-08-25T22:25:48.688Z,27.92
2022-08-25T22:28:16.949Z,29.33
2022-08-25T22:30:45.169Z,30.03
2022-08-25T22:33:14.497Z,28.77
2022-08-25T22:35:42.666Z,26.83
2022-08-25T22:38:12.534Z,24.70
2022-08-25T22:40:42.158Z,24.23
2022-08-25T22:43:10.888Z,23.27
2022-08-25T22:45:39.320Z,23.97
2022-08-25T22:48:35.514Z,24.50
2022-08-25T22:51:07.898Z,24.33
2022-08-25T22:53:35.745Z,22.87
2022-08-25T22:56:04.014Z,23.70
2022-08-25T22:58:32.427Z,23.10
2022-08-25T23:01:02.296Z,22.93
2022-08-25T23:03:32.695Z,21.90
2022-08-25T23:06:00.849Z,22.70
2022-08-25T23:08:39.415Z,23.20
2022-08-25T23:11:10.009Z,23.87
2022-08-25T23:13:38.784Z,21.77
2022-08-25T23:16:11.417Z,22.80
2022-08-25T23:18:43.871Z,23.87
2022-08-25T23:21:35.165Z,23.43
2022-08-25T23:30:01.177Z,24.67
2022-08-25T23:32:29.516Z,24.67
2022-08-25T23:34:57.671Z,25.67
2022-08-25T23:37:28.115Z,24.73
2022-08-25T23:39:58.902Z,23.73
2022-08-25T23:42:27.420Z,24.77
2022-08-25T23:44:55.302Z,23.97
2022-08-25T23:47:23.661Z,25.87
2022-08-25T23:49:52.469Z,26.40
2022-08-25T23:52:21.027Z,24.13
2022-08-25T23:54:49.007Z,24.70
2022-08-25T23:57:18.774Z,26.67
2022-08-25T23:59:46.754Z,26.13
